Time;durP1;ratioP1;P1;durP2;ratioP2;P2;SDS_P1;SDS_P2;PMS_P1;PMS_P2;Temp;Humidity;BMP_temperature;BMP_pressure;BME280_temperature;BME280_humidity;BME280_pressure;Samples;Min_cycle;Max_cycle;Signal;HPM_P1;HPM_P2
2021/12/08 00:02:10;;;;;;;39.63;19.00;;;102.60;2227.20;;;;;;5054137;28;20043;-84
2021/12/08 00:04:37;;;;;;;38.97;18.77;;;102.60;2227.20;;;;;;5054401;28;20029;-82
2021/12/08 00:07:04;;;;;;;40.15;19.20;;;102.60;2227.20;;;;;;5036410;28;20420;-86
2021/12/08 00:14:53;;;;;;;44.95;22.02;;;102.50;2227.20;;;;;;5053820;28;20032;-86
2021/12/08 00:17:19;;;;;;;41.53;19.63;;;102.70;2227.20;;;;;;5054307;28;20033;-85
2021/12/08 00:19:45;;;;;;;;;;;102.50;2227.20;;;;;;5054164;28;20089;-75
2021/12/08 00:22:11;;;;;;;36.88;17.10;;;102.50;2227.20;;;;;;5053924;28;20356;-86
2021/12/08 00:24:37;;;;;;;;;;;102.40;2227.20;;;;;;5054361;28;20123;-85
2021/12/08 00:27:03;;;;;;;37.15;17.92;;;102.40;2227.20;;;;;;5053960;28;19908;-85
2021/12/08 00:29:29;;;;;;;43.00;19.58;;;77.70;2227.20;;;;;;5052249;28;20025;-86
2021/12/08 00:31:56;;;;;;;;;;;77.60;2227.20;;;;;;5054486;28;20106;-82
2021/12/08 00:34:22;;;;;;;;;;;77.70;2227.20;;;;;;5054072;28;19912;-75
2021/12/08 00:36:51;;;;;;;27.52;14.57;;;77.70;2227.20;;;;;;5053328;28;19908;-86
2021/12/08 00:39:18;;;;;;;42.13;18.42;;;77.70;2227.20;;;;;;5052768;28;20037;-81
2021/12/08 00:41:43;;;;;;;;;;;77.70;2227.20;;;;;;5052567;28;20060;-75
2021/12/08 00:44:09;;;;;;;;;;;77.70;2227.20;;;;;;5054410;28;19911;-84
2021/12/08 00:46:36;;;;;;;;;;;77.60;2227.20;;;;;;5054118;28;20007;-83
2021/12/08 00:49:03;;;;;;;;;;;77.70;2227.20;;;;;;5053965;28;19959;-84
2021/12/08 00:51:29;;;;;;;;;;;77.60;2227.20;;;;;;5052856;28;20268;-83
2021/12/08 00:53:55;;;;;;;;;;;77.70;2227.20;;;;;;5054138;28;19905;-78
2021/12/08 00:56:21;;;;;;;;;;;77.60;2227.20;;;;;;5053841;28;19919;-83
2021/12/08 00:58:46;;;;;;;;;;;77.70;2227.20;;;;;;5053558;28;20300;-75
2021/12/08 01:01:12;;;;;;;;;;;77.70;2227.20;;;;;;5052499;28;19960;-78
2021/12/08 01:03:38;;;;;;;;;;;77.70;2227.20;;;;;;5053542;28;19912;-82
2021/12/08 01:06:04;;;;;;;;;;;77.70;2227.20;;;;;;5052781;28;20001;-83
2021/12/08 01:08:29;;;;;;;;;;;77.70;2227.20;;;;;;5053434;28;20370;-75
2021/12/08 01:10:58;;;;;;;;;;;102.40;2227.20;;;;;;5053710;28;20319;-78
2021/12/08 01:13:25;;;;;;;;;;;77.70;2227.20;;;;;;5035848;28;20016;-84
2021/12/08 01:15:53;;;;;;;;;;;102.40;2227.20;;;;;;5053602;28;19927;-84
2021/12/08 01:18:19;;;;;;;;;;;77.70;2227.20;;;;;;5035556;28;19917;-78
2021/12/08 01:20:45;;;;;;;;;;;102.40;2227.20;;;;;;5035865;28;19947;-84
2021/12/08 01:23:11;;;;;;;;;;;102.40;2227.20;;;;;;5052784;28;19992;-84
2021/12/08 01:25:36;;;;;;;;;;;102.50;2227.20;;;;;;5053485;28;20428;-81
2021/12/08 01:28:02;;;;;;;;;;;102.40;2227.20;;;;;;5053606;28;20341;-84
2021/12/08 01:30:28;;;;;;;;;;;102.50;2227.20;;;;;;5053025;28;20349;-84
2021/12/08 01:32:55;;;;;;;;;;;102.50;2227.20;;;;;;5053479;28;19931;-84
2021/12/08 01:35:21;;;;;;;;;;;102.60;2227.20;;;;;;5035700;28;19958;-84
2021/12/08 01:37:47;;;;;;;;;;;102.60;2227.20;;;;;;5053323;28;19987;-83
2021/12/08 01:40:14;;;;;;;;;;;102.60;2227.20;;;;;;5053322;28;20426;-79
2021/12/08 01:42:46;;;;;;;;;;;102.50;2227.20;;;;;;5053421;28;20360;-84
2021/12/08 01:47:58;;;;;;;;;;;102.80;2227.20;;;;;;5053165;28;19919;-84
2021/12/08 01:50:23;;;;;;;;;;;102.80;2227.20;;;;;;5053450;28;19905;-85
2021/12/08 01:52:49;;;;;;;;;;;102.70;2227.20;;;;;;5052818;28;20348;-77
2021/12/08 01:55:15;;;;;;;;;;;102.70;2227.20;;;;;;5053636;28;19931;-83
2021/12/08 01:57:41;;;;;;;;;;;102.70;2227.20;;;;;;5053270;28;19912;-84
2021/12/08 02:00:09;;;;;;;;;;;102.60;2227.20;;;;;;5052795;28;19921;-85
2021/12/08 02:02:35;;;;;;;;;;;102.60;2227.20;;;;;;5035345;28;19915;-84
2021/12/08 02:05:01;;;;;;;;;;;102.50;2227.20;;;;;;5052985;28;19904;-84
2021/12/08 02:07:26;;;;;;;;;;;102.60;2227.20;;;;;;5052035;28;19905;-84
2021/12/08 02:09:52;;;;;;;;;;;102.60;2227.20;;;;;;5053065;28;19909;-85
2021/12/08 02:12:17;;;;;;;;;;;102.70;2227.20;;;;;;5053192;28;19905;-84
2021/12/08 02:14:43;;;;;;;;;;;102.70;2227.20;;;;;;5035315;28;19912;-86
2021/12/08 02:17:10;;;;;;;;;;;102.60;2227.20;;;;;;5053544;28;19988;-86
2021/12/08 02:19:37;;;;;;;;;;;102.60;2227.20;;;;;;5052911;28;19913;-85
2021/12/08 02:22:03;;;;;;;;;;;102.80;2227.20;;;;;;5053201;28;19963;-85
2021/12/08 02:24:28;;;;;;;;;;;102.70;2227.20;;;;;;5051792;28;19990;-86
2021/12/08 02:26:55;;;;;;;;;;;102.80;2227.20;;;;;;5053075;28;19951;-86
2021/12/08 02:29:35;;;;;;;;;;;102.80;2227.20;;;;;;5052878;28;19908;-84
2021/12/08 02:48:31;;;;;;;;;;;102.60;2227.20;;;;;;5014823;28;19911;-85
2021/12/08 02:50:57;;;;;;;;;;;102.90;2227.20;;;;;;5014951;28;19905;-85
2021/12/08 02:53:23;;;;;;;;;;;102.80;2227.20;;;;;;5014799;28;20246;-81
2021/12/08 02:55:48;;;;;;;;;;;102.90;2227.20;;;;;;4998141;28;19909;-78
2021/12/08 02:58:15;;;;;;;;;;;102.90;2227.20;;;;;;5014351;28;20371;-84
2021/12/08 03:00:49;;;;;;;;;;;102.80;2227.20;;;;;;5014136;28;19921;-84
2021/12/08 03:03:15;;;;;;;;;;;102.90;2227.20;;;;;;5014434;28;19909;-84
2021/12/08 03:05:41;;;;;;;;;;;102.90;2227.20;;;;;;5014551;28;19988;-80
2021/12/08 03:08:07;;;;;;;;;;;102.90;2227.20;;;;;;5014320;28;19912;-81
2021/12/08 03:10:35;;;;;;;;;;;102.80;2227.20;;;;;;5014438;28;19913;-85
2021/12/08 03:13:01;;;;;;;;;;;102.80;2227.20;;;;;;5037756;28;19905;-84
2021/12/08 03:15:27;;;;;;;;;;;102.70;2227.20;;;;;;5055977;28;20375;-85
2021/12/08 03:17:52;;;;;;;;;;;102.80;2227.20;;;;;;5054485;28;19905;-85
2021/12/08 03:20:28;;;;;;;;;;;102.70;2227.20;;;;;;5055950;28;19968;-86
2021/12/08 03:22:59;;;;;;;;;;;102.80;2227.20;;;;;;5055306;28;19905;-84
2021/12/08 03:25:27;;;;;;;;;;;102.80;2227.20;;;;;;5055774;28;19963;-84
2021/12/08 03:28:05;;;;;;;;;;;102.80;2227.20;;;;;;5055472;28;20399;-83
2021/12/08 03:30:38;;;;;;;;;;;102.70;2227.20;;;;;;5055271;28;20004;-86
2021/12/08 03:33:04;;;;;;;;;;;102.70;2227.20;;;;;;5055503;28;20364;-86
2021/12/08 03:35:29;;;;;;;;;;;102.80;2227.20;;;;;;5055002;28;19909;-85
2021/12/08 03:37:57;;;;;;;;;;;102.80;2227.20;;;;;;5037371;28;19911;-85
2021/12/08 03:40:24;;;;;;;;;;;102.70;2227.20;;;;;;5055385;28;19991;-84
2021/12/08 03:42:50;;;;;;;;;;;102.60;2227.20;;;;;;5055259;28;19911;-86
2021/12/08 03:45:17;;;;;;;;;;;102.70;2227.20;;;;;;5054908;28;20337;-86
2021/12/08 03:47:44;;;;;;;;;;;102.60;2227.20;;;;;;5054925;28;19909;-85
2021/12/08 03:50:12;;;;;;;;;;;102.50;2227.20;;;;;;5055114;28;20372;-84
2021/12/08 03:52:38;;;;;;;;;;;102.50;2227.20;;;;;;5054847;28;19905;-87
2021/12/08 03:55:08;;;;;;;;;;;102.60;2227.20;;;;;;5054913;28;19936;-86
2021/12/08 03:57:34;;;;;;;;;;;102.60;2227.20;;;;;;5054777;28;19905;-75
2021/12/08 03:59:59;;;;;;;;;;;102.60;2227.20;;;;;;5054442;28;19924;-85
2021/12/08 04:02:25;;;;;;;;;;;102.50;2227.20;;;;;;5054085;28;20272;-86
2021/12/08 04:04:51;;;;;;;;;;;102.50;2227.20;;;;;;5054836;28;20418;-79
2021/12/08 04:07:18;;;;;;;;;;;102.40;2227.20;;;;;;5054103;28;19904;-84
2021/12/08 04:09:47;;;;;;;;;;;102.50;2227.20;;;;;;5053612;28;20253;-86
2021/12/08 04:12:14;;;;;;;;;;;102.50;2227.20;;;;;;5037152;28;19916;-79
2021/12/08 04:14:43;;;;;;;;;;;102.50;2227.20;;;;;;5054403;28;19939;-80
2021/12/08 04:17:15;;;;;;;;;;;102.40;2227.20;;;;;;5036928;28;19909;-81
2021/12/08 04:19:41;;;;;;;;;;;102.50;2227.20;;;;;;5036523;28;20007;-81
2021/12/08 04:22:14;;;;;;;;;;;77.70;2227.20;;;;;;5036469;28;20017;-81
2021/12/08 04:24:40;;;;;;;;;;;102.40;2227.20;;;;;;5054327;28;19947;-79
2021/12/08 04:27:09;;;;;;;;;;;102.40;2227.20;;;;;;5054494;28;19905;-86
2021/12/08 04:29:36;;;;;;;;;;;102.40;2227.20;;;;;;5036702;28;20388;-86
2021/12/08 04:32:03;;;;;;;;;;;77.70;2227.20;;;;;;5053098;28;19908;-86
2021/12/08 04:34:30;;;;;;;;;;;77.60;2227.20;;;;;;5054432;28;20039;-85
2021/12/08 04:36:59;;;;;;;;;;;77.60;2227.20;;;;;;5054277;28;19911;-86
2021/12/08 04:39:43;;;;;;;;;;;77.60;2227.20;;;;;;5053038;28;19923;-86
2021/12/08 04:42:13;;;;;;;;;;;77.60;2227.20;;;;;;5054192;28;20357;-85
2021/12/08 04:44:49;;;;;;;;;;;77.70;2227.20;;;;;;5053928;28;19909;-86
2021/12/08 05:06:03;;;;;;;;;;;77.20;2227.20;;;;;;5053958;28;19950;-86
2021/12/08 05:08:40;;;;;;;;;;;77.20;2227.20;;;;;;5052975;28;19909;-85
2021/12/08 05:11:17;;;;;;;;;;;77.20;2227.20;;;;;;5053603;28;19912;-86
2021/12/08 05:13:44;;;;;;;;;;;77.00;2227.20;;;;;;5053874;28;19912;-86
2021/12/08 05:16:11;;;;;;;;;;;77.10;2227.20;;;;;;5053617;28;19912;-85
2021/12/08 05:18:39;;;;;;;;;;;77.10;2227.20;;;;;;5053552;28;19913;-86
2021/12/08 05:21:07;;;;;;;;;;;77.00;2227.20;;;;;;5053766;28;19905;-86
2021/12/08 05:23:37;;;;;;;;;;;77.00;2227.20;;;;;;5035849;28;19908;-85
2021/12/08 05:26:05;;;;;;;;;;;77.00;2227.20;;;;;;5053546;28;19905;-86
2021/12/08 05:28:31;;;;;;;;;;;77.10;2227.20;;;;;;5053363;28;19955;-85
2021/12/08 05:31:06;;;;;;;;;;;77.20;2227.20;;;;;;5052549;28;19912;-85
2021/12/08 05:33:32;;;;;;;;;;;77.10;2227.20;;;;;;5053361;28;19904;-85
2021/12/08 05:35:58;;;;;;;;;;;77.10;2227.20;;;;;;5052548;28;19935;-86
2021/12/08 05:38:24;;;;;;;;;;;77.10;2227.20;;;;;;5052530;28;19909;-84
2021/12/08 05:40:52;;;;;;;;;;;77.50;2227.20;;;;;;5052509;28;19939;-85
2021/12/08 05:43:18;;;;;;;;;;;77.20;2227.20;;;;;;5053450;28;20376;-84
2021/12/08 05:45:45;;;;;;;;;;;77.30;2227.20;;;;;;5053475;28;19905;-80
2021/12/08 05:48:11;;;;;;;;;;;77.30;2227.20;;;;;;5053672;28;19911;-85
2021/12/08 05:50:43;;;;;;;;;;;77.20;2227.20;;;;;;5053454;28;19905;-85
2021/12/08 05:53:08;;;;;;;;;;;77.20;2227.20;;;;;;5053601;28;20341;-85
2021/12/08 05:55:35;;;;;;;;;;;77.10;2227.20;;;;;;5053388;28;19913;-85
2021/12/08 05:58:01;;;;;;;;;;;77.20;2227.20;;;;;;5052534;28;19905;-85
2021/12/08 06:00:29;;;;;;;;;;;77.30;2227.20;;;;;;5052156;28;19956;-84
2021/12/08 06:02:56;;;;;;;;;;;77.40;2227.20;;;;;;5053227;28;19917;-86
2021/12/08 06:05:22;;;;;;;;;;;77.40;2227.20;;;;;;5052421;28;20372;-86
2021/12/08 06:07:48;;;;;;;;;;;77.40;2227.20;;;;;;5036616;28;19905;-86
2021/12/08 06:10:24;;;;;;;;;;;77.50;2227.20;;;;;;5057033;28;19912;-84
2021/12/08 06:12:50;;;;;;;;;;;77.50;2227.20;;;;;;5056818;28;19999;-84
2021/12/08 06:15:16;;;;;;;;;;;77.40;2227.20;;;;;;5057157;28;20136;-84
2021/12/08 06:17:41;;;;;;;;;;;77.30;2227.20;;;;;;5056800;28;19911;-88
2021/12/08 06:20:08;;;;;;;;;;;77.30;2227.20;;;;;;5038891;28;19913;-85
2021/12/08 06:22:34;;;;;;;;;;;77.30;2227.20;;;;;;5039381;28;19931;-85
2021/12/08 06:25:00;;;;;;;;;;;77.40;2227.20;;;;;;5056585;28;19909;-85
2021/12/08 06:27:26;;;;;;;;;;;77.50;2227.20;;;;;;5057029;28;19905;-85
2021/12/08 06:29:52;;;;;;;;;;;77.50;2227.20;;;;;;5056579;28;19913;-85
2021/12/08 06:32:18;;;;;;;;;;;77.40;2227.20;;;;;;5056809;28;19954;-85
2021/12/08 06:34:46;;;;;;;;;;;77.40;2227.20;;;;;;5056448;28;19904;-85
2021/12/08 06:37:22;;;;;;;;;;;77.40;2227.20;;;;;;5056686;28;19912;-85
2021/12/08 06:40:01;;;;;;;;;;;77.40;2227.20;;;;;;5056411;28;19999;-85
2021/12/08 06:42:28;;;;;;;;;;;77.50;2227.20;;;;;;5056489;28;19913;-82
2021/12/08 06:44:54;;;;;;;;;;;77.40;2227.20;;;;;;5055541;28;19912;-85
2021/12/08 06:47:22;;;;;;;;;;;77.50;2227.20;;;;;;5056112;28;19913;-85
2021/12/08 06:49:50;;;;;;;;;;;77.50;2227.20;;;;;;5056303;28;20353;-86
2021/12/08 06:52:19;;;;;;;;;;;77.40;2227.20;;;;;;5056152;28;19912;-85
2021/12/08 06:54:56;;;;;;;;;;;77.40;2227.20;;;;;;5041044;28;20102;-84
2021/12/08 06:57:28;;;;;;;;;;;77.50;2227.20;;;;;;5061486;28;19915;-81
2021/12/08 07:00:00;;;;;;;;;;;77.60;2227.20;;;;;;5052540;28;20013;-84
2021/12/08 07:02:58;;;;;;;;;;;77.70;2227.20;;;;;;5056049;28;19909;-84
2021/12/08 07:05:31;;;;;;;;;;;77.70;2227.20;;;;;;5056552;28;19911;-85
2021/12/08 07:08:02;;;;;;;;;;;102.50;2227.20;;;;;;5056099;28;20386;-75
2021/12/08 07:10:30;;;;;;;;;;;102.50;2227.20;;;;;;5054859;28;19912;-76
2021/12/08 07:13:01;;;;;;;;;;;102.70;2227.20;;;;;;5071905;28;19904;-85
2021/12/08 07:15:33;;;;;;;;;;;102.60;2227.20;;;;;;5071591;28;19944;-83
2021/12/08 07:18:00;;;;;;;;;;;102.80;2227.20;;;;;;5056054;28;20376;-82
2021/12/08 07:20:45;;;;;;;;;;;102.80;2227.20;;;;;;5055048;28;19905;-84
2021/12/08 07:23:36;;;;;;;;;;;102.80;2227.20;;;;;;5071313;28;20321;-84
2021/12/08 07:26:04;;;;;;;;;;;102.70;2227.20;;;;;;5054748;28;19911;-83
2021/12/08 07:28:29;;;;;;;;;;;102.70;2227.20;;;;;;5055724;28;20403;-84
2021/12/08 07:31:00;;;;;;;;;;;102.50;2227.20;;;;;;5055765;28;19936;-83
2021/12/08 07:33:27;;;;;;;;;;;102.60;2227.20;;;;;;5055321;28;19908;-81
2021/12/08 07:35:55;;;;;;;;;;;102.60;2227.20;;;;;;5067167;28;19913;-82
2021/12/08 07:38:22;;;;;;;;;;;102.70;2227.20;;;;;;5054865;28;19955;-81
2021/12/08 07:41:11;;;;;;;;;;;102.60;2227.20;;;;;;5054479;28;19909;-80
2021/12/08 07:43:39;;;;;;;;;;;102.70;2227.20;;;;;;5008621;28;19932;-77
2021/12/08 07:46:07;;;;;;;;;;;102.60;2227.20;;;;;;5009722;28;20378;-78
2021/12/08 07:48:35;;;;;;;;;;;102.40;2227.20;;;;;;5012522;28;19909;-80
2021/12/08 07:51:05;;;;;;;;;;;102.40;2227.20;;;;;;5009340;28;19909;-80
2021/12/08 07:53:31;;;;;;;;;;;102.50;2227.20;;;;;;5010509;28;19905;-79
2021/12/08 07:56:03;;;;;;;;;;;102.40;2227.20;;;;;;4993096;28;20382;-75
2021/12/08 07:58:29;;;;;;;;;;;102.50;2227.20;;;;;;4992718;28;19918;-77
2021/12/08 08:00:56;;;;;;;;;;;102.50;2227.20;;;;;;4992449;28;20056;-75
2021/12/08 08:03:23;;;;;;;;;;;102.60;2227.20;;;;;;4992962;28;20408;-78
2021/12/08 08:05:49;;;;;;;;;;;102.50;2227.20;;;;;;4992862;28;19916;-78
2021/12/08 08:08:17;;;;;;;;;;;102.50;2227.20;;;;;;4993271;28;19906;-78
2021/12/08 08:10:45;;;;;;;;;;;102.50;2227.20;;;;;;4976284;28;19948;-77
2021/12/08 08:13:14;;;;;;;;;;;102.50;2227.20;;;;;;4992840;28;19952;-76
2021/12/08 08:15:44;;;;;;;;;;;102.50;2227.20;;;;;;4999911;28;20065;-74
2021/12/08 08:18:11;;;;;;;;;;;102.40;2227.20;;;;;;5001356;28;20361;-75
2021/12/08 08:20:39;;;;;;;;;;;102.50;2227.20;;;;;;5025605;28;19912;-73
2021/12/08 08:23:05;;;;;;;;;;;102.60;2227.20;;;;;;5052524;28;19995;-75
2021/12/08 08:25:34;;;;;;;;;;;102.60;2227.20;;;;;;5053230;28;20436;-76
2021/12/08 08:28:00;;;;;;;;;;;102.70;2227.20;;;;;;5052791;28;19908;-74
2021/12/08 08:30:28;;;;;;;;;;;102.60;2227.20;;;;;;5035196;28;19955;-77
2021/12/08 08:32:54;;;;;;;;;;;102.60;2227.20;;;;;;5035397;28;19919;-74
2021/12/08 08:35:26;;;;;;;;;;;102.60;2227.20;;;;;;5053003;28;19939;-74
2021/12/08 08:37:51;;;;;;;;;;;102.70;2227.20;;;;;;5050731;28;19912;-75
2021/12/08 08:40:26;;;;;;;;;;;102.70;2227.20;;;;;;5052950;28;19916;-76
2021/12/08 08:42:55;;;;;;;;;;;102.90;2227.20;;;;;;5053442;28;20268;-75
2021/12/08 08:45:24;;;;;;;;;;;103.00;2227.20;;;;;;5053103;28;19909;-77
2021/12/08 08:48:00;;;;;;;;;;;103.00;2227.20;;;;;;5053356;28;19909;-75
2021/12/08 08:50:31;;;;;;;;;;;103.20;2227.20;;;;;;5051917;28;19967;-75
2021/12/08 08:52:56;;;;;;;;;;;103.20;2227.20;;;;;;5053077;28;20376;-75
2021/12/08 08:55:25;;;;;;;;;;;103.20;2227.20;;;;;;5053007;28;19947;-75
2021/12/08 08:57:51;;;;;;;;;;;103.30;2227.20;;;;;;5052380;28;19916;-75
2021/12/08 09:00:20;;;;;;;;;;;128.00;2252.80;;;;;;5052480;28;19916;-74
2021/12/08 09:02:47;;;;;;;;;;;128.20;2252.80;;;;;;5052959;28;19958;-75
2021/12/08 09:05:19;;;;;;;;;;;128.40;2252.80;;;;;;5052908;28;19904;-74
2021/12/08 09:07:47;;;;;;;;;;;128.40;2252.80;;;;;;5035163;28;19921;-74
2021/12/08 09:10:19;;;;;;;;;;;128.10;2252.80;;;;;;5052328;28;19919;-75
2021/12/08 09:13:06;;;;;;;;;;;128.40;2252.80;;;;;;5052732;28;19909;-75
2021/12/08 09:15:34;;;;;;;;;;;128.50;2252.80;;;;;;5052707;28;19912;-74
2021/12/08 09:18:05;;;;;;;;;;;128.40;2252.80;;;;;;5053016;28;19994;-75
2021/12/08 09:20:42;;;;;;;;;;;128.40;2252.80;;;;;;5053015;28;19913;-75
2021/12/08 09:23:17;;;;;;;;;;;128.40;2252.80;;;;;;5052714;28;19905;-75
2021/12/08 09:25:45;;;;;;;;;;;128.50;2252.80;;;;;;5052788;28;20368;-75
2021/12/08 09:28:13;;;;;;;;;;;128.50;2252.80;;;;;;5051555;28;19908;-74
2021/12/08 09:30:45;;;;;;;;;;;128.80;2252.80;;;;;;5052024;28;20379;-75
2021/12/08 09:33:13;;;;;;;;;;;128.90;2252.80;;;;;;5032384;28;20313;-74
2021/12/08 09:35:38;;;;;;;;;;;153.80;2252.80;;;;;;5051974;28;19996;-75
2021/12/08 09:38:17;;;;;;;;;;;154.10;2252.80;;;;;;5052691;28;19932;-74
2021/12/08 09:40:42;;;;;;;;;;;154.30;2252.80;;;;;;5052497;28;19967;-74
2021/12/08 09:43:28;;;;;;;;;;;154.30;2252.80;;;;;;5054062;28;20313;-74
2021/12/08 09:46:04;;;;;;;;;;;154.20;2252.80;;;;;;5056144;28;19905;-75
2021/12/08 09:48:30;;;;;;;;;;;154.30;2252.80;;;;;;5055939;28;19913;-76
2021/12/08 09:50:57;;;;;;;;;;;154.50;2252.80;;;;;;5056240;28;19916;-74
2021/12/08 09:53:23;;;;;;;;;;;179.20;2252.80;;;;;;5055930;28;20368;-75
2021/12/08 09:55:51;;;;;;;;;;;179.20;2252.80;;;;;;5056052;28;19941;-75
2021/12/08 09:58:17;;;;;;;;;;;154.50;2252.80;;;;;;5056062;28;19908;-75
2021/12/08 10:00:44;;;;;;;;;;;179.40;2252.80;;;;;;5054669;28;20278;-74
2021/12/08 10:03:13;;;;;;;;;;;179.30;2252.80;;;;;;5055017;28;19919;-74
2021/12/08 10:05:40;;;;;;;;;;;179.60;2252.80;;;;;;5053746;28;19955;-74
2021/12/08 10:08:06;;;;;;;;;;;179.50;2252.80;;;;;;5046225;28;19999;-75
2021/12/08 10:10:32;;;;;;;;;;;179.90;2252.80;;;;;;5055683;28;19940;-77
2021/12/08 10:12:58;;;;;;;;;;;180.10;2252.80;;;;;;5056290;28;19912;-76
2021/12/08 10:15:25;;;;;;;;;;;205.00;2252.80;;;;;;5055387;28;19908;-76
2021/12/08 10:17:51;;;;;;;;;;;205.00;2252.80;;;;;;5056350;28;20349;-74
2021/12/08 10:20:25;;;;;;;;;;;205.10;2252.80;;;;;;5070738;28;19916;-74
2021/12/08 10:23:09;;;;;;;;;;;205.20;2252.80;;;;;;5055344;28;19909;-74
2021/12/08 10:25:37;;;;;;;;;;;205.30;2252.80;;;;;;5056065;28;20442;-75
2021/12/08 10:28:21;;;;;;;;;;;205.20;2252.80;;;;;;5055499;28;19911;-74
2021/12/08 11:19:22;;;;;;;37.70;21.97;;;204.90;2252.80;;;;;;5109874;27;20396;-79
2021/12/08 11:21:56;;;;;;;35.60;19.20;;;230.50;2227.20;;;;;;5099622;28;20031;-79
2021/12/08 11:24:35;;;;;;;39.75;20.63;;;230.50;2227.20;;;;;;5095200;28;20319;-76
2021/12/08 11:27:08;;;;;;;39.90;21.83;;;230.60;2227.20;;;;;;5099392;28;20479;-77
2021/12/08 11:29:39;;;;;;;37.53;20.73;;;205.70;2252.80;;;;;;5110098;28;20468;-79
2021/12/08 11:32:10;;;;;;;40.75;21.48;;;205.70;2227.20;;;;;;5105735;28;20538;-77
2021/12/08 11:34:37;;;;;;;35.47;20.10;;;230.40;2227.20;;;;;;5109087;28;20036;-79
2021/12/08 11:37:12;;;;;;;38.38;20.90;;;230.50;2252.80;;;;;;5108429;28;20032;-76
2021/12/08 11:39:41;;;;;;;37.85;20.05;;;230.50;2227.20;;;;;;5108780;28;20472;-79
2021/12/08 11:42:12;;;;;;;38.50;20.25;;;230.40;2227.20;;;;;;5110035;28;20032;-79
2021/12/08 11:44:43;;;;;;;40.42;21.23;;;230.40;2227.20;;;;;;5109737;28;20388;-77
2021/12/08 11:47:35;;;;;;;40.03;21.48;;;205.70;2252.80;;;;;;5109764;28;20032;-78
2021/12/08 11:50:14;;;;;;;37.22;19.15;;;205.70;2227.20;;;;;;5109842;28;20062;-78
2021/12/08 11:52:40;;;;;;;38.63;21.13;;;205.70;2252.80;;;;;;5109556;28;20023;-79
2021/12/08 11:55:09;;;;;;;37.55;22.38;;;205.40;2252.80;;;;;;5108342;28;20016;-79
2021/12/08 11:57:46;;;;;;;43.35;22.83;;;205.40;2252.80;;;;;;5108550;28;20499;-79
2021/12/08 12:00:30;;;;;;;41.55;22.67;;;205.50;2252.80;;;;;;5109805;28;20100;-80
2021/12/08 12:03:02;;;;;;;42.30;20.67;;;205.30;2252.80;;;;;;5108596;28;20032;-79
2021/12/08 12:05:28;;;;;;;42.28;21.73;;;204.80;2252.80;;;;;;5108153;28;20101;-77
2021/12/08 12:07:54;;;;;;;;;;;179.70;2252.80;;;;;;5109837;28;20097;-77
2021/12/08 12:10:22;;;;;;;45.47;21.65;;;179.80;2252.80;;;;;;5124978;27;19908;-77
2021/12/08 12:12:48;;;;;;;38.47;18.88;;;180.10;2252.80;;;;;;5108925;28;20024;-78
2021/12/08 12:15:15;;;;;;;;;;;204.90;2252.80;;;;;;5109713;28;20047;-77
2021/12/08 12:17:42;;;;;;;56.33;24.40;;;204.90;2252.80;;;;;;5106821;28;19915;-76
2021/12/08 12:20:25;;;;;;;41.72;21.77;;;180.10;2252.80;;;;;;5093989;28;20036;-77
2021/12/08 12:23:21;;;;;;;40.00;21.77;;;204.90;2252.80;;;;;;5094276;28;20034;-77
2021/12/08 12:26:14;;;;;;;49.28;22.95;;;179.70;2252.80;;;;;;5095482;28;20103;-77
2021/12/08 12:28:43;;;;;;;39.92;20.00;;;179.40;2252.80;;;;;;5083277;28;20055;-76
2021/12/08 12:31:30;;;;;;;48.25;21.83;;;154.50;2252.80;;;;;;5075619;28;20455;-77
2021/12/08 12:33:56;;;;;;;47.35;24.42;;;179.20;2252.80;;;;;;5083391;28;20050;-81
2021/12/08 12:36:30;;;;;;;43.92;20.83;;;154.50;2252.80;;;;;;5083160;28;20032;-78
2021/12/08 12:39:11;;;;;;;44.33;20.50;;;154.50;2252.80;;;;;;5083506;28;20028;-75
2021/12/08 12:41:37;;;;;;;41.55;20.35;;;179.30;2252.80;;;;;;5084540;28;20038;-79
2021/12/08 12:44:25;;;;;;;48.47;24.02;;;179.50;2252.80;;;;;;5087925;28;20024;-78
2021/12/08 12:47:11;;;;;;;49.15;22.27;;;179.70;2252.80;;;;;;5081954;28;20036;-83
2021/12/08 12:49:40;;;;;;;44.53;21.60;;;179.90;2252.80;;;;;;5083503;28;20028;-79
2021/12/08 12:52:09;;;;;;;48.42;22.52;;;179.70;2252.80;;;;;;5084353;28;20492;-78
2021/12/08 12:54:37;;;;;;;48.63;21.38;;;179.50;2252.80;;;;;;5082693;28;20127;-79
2021/12/08 12:57:06;;;;;;;39.35;21.02;;;179.50;2252.80;;;;;;5083252;28;20024;-77
2021/12/08 12:59:41;;;;;;;42.78;22.75;;;179.70;2252.80;;;;;;5074073;28;20489;-78
2021/12/08 13:02:12;;;;;;;33.47;17.30;;;179.50;2252.80;;;;;;5073255;28;20016;-77
2021/12/08 13:05:10;;;;;;;41.83;22.88;;;179.40;2252.80;;;;;;5070893;28;20281;-75
2021/12/08 13:07:42;;;;;;;40.70;21.70;;;179.20;2252.80;;;;;;5072619;28;20111;-77
2021/12/08 13:10:19;;;;;;;41.30;20.77;;;179.60;2252.80;;;;;;5071657;28;20414;-80
2021/12/08 13:12:45;;;;;;;36.47;20.63;;;179.40;2252.80;;;;;;5057308;28;20381;-75
2021/12/08 13:15:23;;;;;;;39.35;21.38;;;179.40;2252.80;;;;;;5063579;28;20055;-77
2021/12/08 13:18:06;;;;;;;48.70;20.00;;;179.20;2252.80;;;;;;5071080;28;20040;-75
2021/12/08 13:20:38;;;;;;;40.40;20.30;;;179.50;2252.80;;;;;;5072515;28;20119;-77
2021/12/08 13:23:07;;;;;;;49.08;22.23;;;179.30;2252.80;;;;;;5073881;28;20423;-75
2021/12/08 13:28:27;;;;;;;40.75;17.70;;;154.40;2252.80;;;;;;5073857;28;20039;-74
2021/12/08 13:31:07;;;;;;;35.22;19.45;;;154.40;2252.80;;;;;;5071306;28;20430;-76
2021/12/08 13:33:38;;;;;;;44.72;19.83;;;179.20;2252.80;;;;;;5069213;28;20024;-76
2021/12/08 13:36:43;;;;;;;41.50;19.83;;;154.40;2252.80;;;;;;5072233;28;20063;-75
2021/12/08 13:39:14;;;;;;;37.95;18.60;;;154.10;2252.80;;;;;;4974540;28;20039;-77
2021/12/08 13:41:42;;;;;;;47.95;21.05;;;154.30;2252.80;;;;;;4976476;28;20517;-76
2021/12/08 13:44:51;;;;;;;40.75;18.83;;;154.40;2252.80;;;;;;4988082;28;20046;-76
2021/12/08 13:47:31;;;;;;;45.55;20.58;;;154.30;2252.80;;;;;;4968518;28;20060;-76
2021/12/08 13:50:08;;;;;;;32.50;18.15;;;154.30;2252.80;;;;;;4970300;28;20428;-76
2021/12/08 13:52:37;;;;;;;36.28;20.42;;;154.00;2252.80;;;;;;4969610;28;20096;-76
2021/12/08 13:55:25;;;;;;;51.80;23.92;;;154.10;2252.80;;;;;;4970573;28;20420;-75
2021/12/08 13:58:08;;;;;;;40.33;20.15;;;154.10;2252.80;;;;;;4969181;28;20031;-76
2021/12/08 14:00:37;;;;;;;42.92;21.85;;;154.10;2252.80;;;;;;4970925;28;20030;-76
2021/12/08 14:03:04;;;;;;;39.67;21.40;;;154.10;2252.80;;;;;;4970567;28;20042;-74
2021/12/08 14:05:41;;;;;;;41.38;19.85;;;153.90;2252.80;;;;;;4970551;28;20029;-75
2021/12/08 14:08:25;;;;;;;42.85;22.45;;;153.90;2252.80;;;;;;4970487;28;20093;-75
2021/12/08 14:10:55;;;;;;;41.75;20.92;;;153.70;2252.80;;;;;;4965941;28;20030;-77
2021/12/08 14:13:26;;;;;;;46.85;20.73;;;153.80;2252.80;;;;;;4970473;28;20094;-74
2021/12/08 14:16:05;;;;;;;39.33;20.52;;;153.90;2252.80;;;;;;4995046;28;20526;-74
2021/12/08 14:18:41;;;;;;;43.72;22.35;;;153.80;2252.80;;;;;;5018777;28;20121;-75
2021/12/08 14:21:07;;;;;;;;;;;153.70;2252.80;;;;;;5050996;28;20158;-75
2021/12/08 14:23:36;;;;;;;41.95;20.70;;;153.80;2252.80;;;;;;5069947;28;19923;-75
2021/12/08 14:26:08;;;;;;;46.38;22.05;;;153.80;2252.80;;;;;;5068935;28;20032;-75
2021/12/08 14:28:48;;;;;;;41.03;19.75;;;153.80;2252.80;;;;;;5070634;28;20036;-75
2021/12/08 14:31:27;;;;;;;41.05;20.60;;;153.80;2252.80;;;;;;5068472;28;20023;-75
2021/12/08 14:33:59;;;;;;;43.60;20.88;;;153.60;2252.80;;;;;;5068138;28;20044;-75
2021/12/08 14:36:30;;;;;;;50.13;22.05;;;153.60;2252.80;;;;;;5069310;28;20028;-75
2021/12/08 14:38:59;;;;;;;48.35;22.77;;;128.90;2252.80;;;;;;5069814;28;20016;-75
2021/12/08 14:41:28;;;;;;;45.90;22.75;;;128.90;2252.80;;;;;;5068771;28;20104;-75
2021/12/08 14:44:05;;;;;;;55.47;24.10;;;128.90;2252.80;;;;;;5070725;28;20020;-75
2021/12/08 14:46:31;;;;;;;49.08;22.77;;;128.80;2252.80;;;;;;5068703;28;20555;-74
2021/12/08 14:49:01;;;;;;;;;;;128.80;2252.80;;;;;;5069889;28;20118;-75
2021/12/08 14:51:28;;;;;;;44.08;21.67;;;128.70;2252.80;;;;;;5069677;28;19911;-75
2021/12/08 14:54:07;;;;;;;52.70;24.55;;;128.60;2252.80;;;;;;5070715;28;20028;-75
2021/12/08 14:56:34;;;;;;;59.47;26.13;;;128.50;2252.80;;;;;;5067242;28;20025;-75
2021/12/08 14:59:00;;;;;;;48.70;23.55;;;128.40;2252.80;;;;;;5070937;28;20358;-75
2021/12/08 15:01:26;;;;;;;;;;;128.40;2252.80;;;;;;5071210;28;20077;-75
2021/12/08 15:03:52;;;;;;;41.88;23.17;;;128.30;2252.80;;;;;;5071068;28;19912;-75